Time;durP1;ratioP1;P1;durP2;ratioP2;P2;SDS_P1;SDS_P2;PMS_P1;PMS_P2;Temp;Humidity;BMP_temperature;BMP_pressure;BME280_temperature;BME280_humidity;BME280_pressure;Samples;Min_cycle;Max_cycle;Signal;HPM_P1;HPM_P2
2022/07/19 00:01:23;;;;;;;;;11.67;9.67;;;;;29.99;25.86;101290.19;5081578;27;45520;-69
2022/07/19 00:03:48;;;;;;;;;9.67;9.67;;;;;29.95;26.47;101288.88;5080540;27;62816;-69
2022/07/19 00:06:14;;;;;;;;;9.33;8.33;;;;;29.89;26.24;101286.91;5080743;27;51076;-69
2022/07/19 00:08:39;;;;;;;;;8.33;7.33;;;;;29.85;26.18;101284.50;5080022;27;71585;-68
2022/07/19 00:11:04;;;;;;;;;8.33;8.33;;;;;29.80;26.73;101280.66;5080844;27;52308;-69
2022/07/19 00:13:30;;;;;;;;;9.67;9.67;;;;;29.76;26.51;101280.19;5080297;27;59489;-69
2022/07/19 00:15:56;;;;;;;;;9.00;9.00;;;;;29.73;26.52;101283.31;5080094;27;73400;-69
2022/07/19 00:18:21;;;;;;;;;10.00;10.00;;;;;29.70;26.42;101279.06;5080950;27;45553;-69
2022/07/19 00:20:46;;;;;;;;;9.33;9.33;;;;;29.66;26.14;101282.38;5080440;27;59547;-69
2022/07/19 00:23:12;;;;;;;;;9.00;9.00;;;;;29.62;26.39;101270.09;5079902;27;65519;-69
2022/07/19 00:25:37;;;;;;;;;8.67;8.67;;;;;29.54;26.83;101271.06;5079739;28;45932;-69
2022/07/19 00:28:02;;;;;;;;;10.67;10.33;;;;;29.47;26.43;101272.88;5080084;27;68443;-69
2022/07/19 00:30:28;;;;;;;;;10.67;9.67;;;;;29.39;26.56;101273.81;5080661;27;45460;-69
2022/07/19 00:32:53;;;;;;;;;8.67;8.67;;;;;29.36;26.46;101271.47;5080791;27;45434;-69
2022/07/19 00:35:19;;;;;;;;;9.00;9.00;;;;;29.31;26.67;101262.97;5080033;27;66280;-69
2022/07/19 00:37:44;;;;;;;;;6.33;5.00;;;;;29.30;26.52;101266.75;5080441;27;45988;-69
2022/07/19 00:40:10;;;;;;;;;9.33;7.67;;;;;29.26;26.47;101270.88;5080976;27;45416;-68
2022/07/19 00:42:38;;;;;;;;;6.33;6.00;;;;;29.20;26.52;101265.13;5080675;27;45642;-69
2022/07/19 00:45:04;;;;;;;;;8.00;7.00;;;;;29.16;26.80;101260.19;5080352;27;47085;-69
2022/07/19 00:47:29;;;;;;;;;10.33;8.33;;;;;29.12;26.74;101269.81;5080396;27;45410;-68
2022/07/19 00:49:55;;;;;;;;;8.00;8.00;;;;;29.08;26.47;101263.88;5078318;28;64540;-69
2022/07/19 00:52:21;;;;;;;;;9.00;8.00;;;;;29.05;26.53;101270.56;5079366;27;69271;-69
2022/07/19 00:54:48;;;;;;;;;11.33;9.00;;;;;29.04;26.55;101259.81;5080128;27;46244;-69
2022/07/19 00:57:15;;;;;;;;;9.67;9.67;;;;;29.02;26.68;101259.13;5079219;28;45477;-69
2022/07/19 00:59:43;;;;;;;;;10.00;10.00;;;;;29.00;26.85;101269.44;5080397;27;45216;-69
2022/07/19 01:02:11;;;;;;;;;9.00;7.67;;;;;28.96;26.91;101271.69;5080219;27;45493;-69
2022/07/19 01:04:37;;;;;;;;;7.67;6.00;;;;;28.93;26.96;101260.28;5079047;28;46413;-69
2022/07/19 01:07:02;;;;;;;;;9.00;7.33;;;;;28.88;27.20;101260.84;5079227;28;70519;-69
2022/07/19 01:09:27;;;;;;;;;10.00;9.33;;;;;28.83;27.22;101264.13;5080181;27;45345;-69
2022/07/19 01:11:53;;;;;;;;;8.00;7.33;;;;;28.80;27.00;101255.44;5079132;27;66656;-69
2022/07/19 01:14:18;;;;;;;;;5.33;5.00;;;;;28.77;27.06;101251.19;5078027;28;68291;-69
2022/07/19 01:16:45;;;;;;;;;8.33;7.00;;;;;28.75;27.19;101249.66;5079217;27;66568;-69
2022/07/19 01:19:10;;;;;;;;;8.67;7.00;;;;;28.72;26.99;101242.69;5080437;27;45349;-69
2022/07/19 01:21:36;;;;;;;;;10.00;9.00;;;;;28.69;27.25;101243.06;5078607;28;45558;-69
2022/07/19 01:24:01;;;;;;;;;6.67;6.67;;;;;28.67;27.18;101243.25;5078553;28;47096;-69
2022/07/19 01:26:26;;;;;;;;;5.33;4.00;;;;;28.66;27.37;101243.44;5079260;27;57742;-69
2022/07/19 01:28:52;;;;;;;;;8.00;8.00;;;;;28.63;27.02;101251.97;5079140;28;69090;-69
2022/07/19 01:31:17;;;;;;;;;11.00;6.00;;;;;28.57;27.15;101245.38;5079866;27;45542;-69
2022/07/19 01:33:44;;;;;;;;;6.00;6.00;;;;;28.54;27.21;101252.06;5079766;27;46242;-69
2022/07/19 01:36:10;;;;;;;;;10.33;7.67;;;;;28.52;26.96;101245.06;5080083;27;45767;-69
2022/07/19 01:38:36;;;;;;;;;7.33;7.33;;;;;28.48;27.17;101241.84;5079488;27;45332;-69
2022/07/19 01:41:01;;;;;;;;;7.67;7.33;;;;;28.45;27.34;101244.97;5079930;27;45545;-69
2022/07/19 01:43:27;;;;;;;;;6.00;5.00;;;;;28.43;27.59;101243.44;5079710;27;45591;-69
2022/07/19 01:45:53;;;;;;;;;9.33;8.00;;;;;28.37;28.06;101242.31;5078781;27;69401;-69
2022/07/19 01:48:19;;;;;;;;;8.33;6.33;;;;;28.29;27.72;101239.63;5079864;27;45366;-69
2022/07/19 01:50:44;;;;;;;;;8.67;7.00;;;;;28.25;27.32;101238.28;5079766;28;45448;-69
2022/07/19 01:53:10;;;;;;;;;6.00;6.00;;;;;28.23;27.67;101228.38;5078686;27;63141;-68
2022/07/19 01:55:35;;;;;;;;;12.33;6.00;;;;;28.22;28.10;101231.31;5078720;27;70679;-69
2022/07/19 01:58:00;;;;;;;;;10.00;8.00;;;;;28.23;27.42;101224.81;5079755;27;45325;-69
2022/07/19 02:00:26;;;;;;;;;6.67;6.67;;;;;28.22;27.43;101231.31;5078947;27;66806;-69
2022/07/19 02:02:51;;;;;;;;;7.00;7.00;;;;;28.20;27.95;101234.22;5078915;27;63807;-69
2022/07/19 02:05:16;;;;;;;;;6.00;5.67;;;;;28.19;27.38;101232.53;5078533;27;70948;-69
2022/07/19 02:07:42;;;;;;;;;6.33;5.33;;;;;28.17;27.86;101226.41;5079381;27;46019;-69
2022/07/19 02:10:08;;;;;;;;;6.00;6.00;;;;;28.15;27.66;101225.72;5079273;27;47773;-68
2022/07/19 02:12:33;;;;;;;;;5.00;4.67;;;;;28.12;28.01;101234.31;5080333;27;46185;-68
2022/07/19 02:14:59;;;;;;;;;6.33;5.67;;;;;28.10;27.69;101228.16;5082728;27;45441;-69
2022/07/19 02:17:24;;;;;;;;;3.67;3.67;;;;;28.08;27.89;101227.47;5082777;27;50508;-69
2022/07/19 02:19:49;;;;;;;;;6.67;5.67;;;;;28.03;27.59;101219.84;5082039;27;66462;-69
2022/07/19 02:22:15;;;;;;;;;4.67;4.67;;;;;28.02;27.62;101223.59;5081821;27;69524;-69
2022/07/19 02:24:42;;;;;;;;;6.67;6.67;;;;;28.00;27.81;101230.25;5082641;27;45488;-69
2022/07/19 02:27:08;;;;;;;;;4.33;4.00;;;;;27.99;28.41;101221.19;5082943;27;45473;-69
2022/07/19 02:29:33;;;;;;;;;6.67;6.33;;;;;27.95;27.51;101217.13;5082520;27;45392;-69
2022/07/19 02:31:59;;;;;;;;;7.67;6.67;;;;;27.92;27.65;101209.28;5082644;27;45387;-69
2022/07/19 02:34:24;;;;;;;;;5.67;5.00;;;;;27.89;28.00;101212.38;5081606;27;72153;-69
2022/07/19 02:36:49;;;;;;;;;5.33;5.33;;;;;27.87;28.06;101204.38;5081969;27;61687;-69
2022/07/19 02:39:15;;;;;;;;;7.00;5.33;;;;;27.85;28.27;101216.53;5082530;27;45277;-69
2022/07/19 02:41:40;;;;;;;;;6.33;6.33;;;;;27.82;28.17;101204.06;5081345;27;73482;-69
2022/07/19 02:44:06;;;;;;;;;6.33;5.00;;;;;27.79;28.68;101203.56;5081651;27;71598;-69
2022/07/19 02:46:31;;;;;;;;;5.00;4.33;;;;;27.77;28.46;101205.63;5082716;27;45201;-69
2022/07/19 02:48:57;;;;;;;;;4.67;4.67;;;;;27.74;28.43;101204.09;5082512;27;45333;-70
2022/07/19 02:51:22;;;;;;;;;2.00;1.00;;;;;27.71;28.24;101199.00;5081153;27;72970;-69
2022/07/19 02:53:47;;;;;;;;;7.33;5.67;;;;;27.69;28.91;101203.78;5081284;27;67558;-69
2022/07/19 02:56:13;;;;;;;;;4.00;4.00;;;;;27.66;28.33;101199.53;5081681;27;63528;-69
2022/07/19 02:58:38;;;;;;;;;5.00;4.67;;;;;27.63;28.46;101193.59;5081540;27;68342;-69
2022/07/19 03:01:03;;;;;;;;;7.00;6.00;;;;;27.61;28.83;101195.66;5081272;27;73569;-69
2022/07/19 03:03:44;;;;;;;;;5.33;5.33;;;;;27.57;28.65;101192.41;5082211;27;45445;-69
2022/07/19 03:06:10;;;;;;;;;7.00;7.00;;;;;27.53;29.32;101186.50;5082397;27;45435;-69
2022/07/19 03:08:36;;;;;;;;;6.00;6.00;;;;;27.51;28.88;101193.16;5081994;27;45568;-69
2022/07/19 03:11:01;;;;;;;;;5.00;4.00;;;;;27.49;29.18;101198.78;5082098;27;45153;-69
2022/07/19 03:13:27;;;;;;;;;8.00;7.00;;;;;27.46;29.17;101185.50;5080899;27;72426;-69
2022/07/19 03:15:52;;;;;;;;;5.00;4.67;;;;;27.44;29.34;101195.72;5082111;27;45352;-69
2022/07/19 03:18:17;;;;;;;;;8.33;7.00;;;;;27.43;28.80;101196.78;5082243;27;45360;-69
2022/07/19 03:20:43;;;;;;;;;5.33;3.67;;;;;27.40;29.35;101197.13;5081039;27;70516;-69
2022/07/19 03:23:08;;;;;;;;;6.00;5.67;;;;;27.38;30.01;101191.00;5080619;27;67686;-69
2022/07/19 03:25:33;;;;;;;;;6.00;6.00;;;;;27.35;29.48;101196.78;5080870;27;45863;-69
2022/07/19 03:27:59;;;;;;;;;6.33;6.33;;;;;27.32;29.87;101194.41;5080800;27;67685;-69
2022/07/19 03:30:24;;;;;;;;;5.67;5.67;;;;;27.29;29.22;101202.97;5081079;27;58602;-69
2022/07/19 03:32:49;;;;;;;;;6.00;6.00;;;;;27.25;29.62;101194.28;5080809;27;73204;-69
2022/07/19 03:35:15;;;;;;;;;5.67;5.67;;;;;27.22;29.41;101195.47;5081932;27;45800;-69
2022/07/19 03:37:40;;;;;;;;;6.00;5.00;;;;;27.20;30.14;101202.13;5081371;27;45342;-69
2022/07/19 03:40:06;;;;;;;;;6.67;6.67;;;;;27.19;29.48;101194.97;5080785;27;69800;-69
2022/07/19 03:42:31;;;;;;;;;4.67;4.00;;;;;27.18;29.31;101190.53;5081484;27;45387;-69
2022/07/19 03:44:56;;;;;;;;;7.00;7.00;;;;;27.15;29.47;101202.66;5081761;27;45433;-69
2022/07/19 03:47:22;;;;;;;;;7.67;6.33;;;;;27.13;29.90;101199.28;5080554;27;68497;-69
2022/07/19 03:49:47;;;;;;;;;6.67;6.00;;;;;27.09;29.58;101195.16;5080604;27;71307;-69
2022/07/19 03:52:13;;;;;;;;;7.00;6.00;;;;;27.07;30.28;101194.50;5081099;28;46468;-69
2022/07/19 03:54:39;;;;;;;;;5.33;5.33;;;;;27.04;30.26;101198.44;5081282;27;45504;-69
2022/07/19 03:57:04;;;;;;;;;6.67;6.33;;;;;27.03;29.66;101195.91;5081416;27;45406;-69
2022/07/19 03:59:29;;;;;;;;;6.00;6.00;;;;;27.02;29.91;101196.91;5080330;27;72780;-69
2022/07/19 04:01:55;;;;;;;;;7.67;7.67;;;;;27.01;30.13;101200.66;5081203;28;45425;-69
2022/07/19 04:04:20;;;;;;;;;8.00;6.33;;;;;27.00;29.68;101199.81;5081392;27;45306;-69
2022/07/19 04:06:46;;;;;;;;;7.33;7.33;;;;;26.98;29.92;101198.28;5080343;27;63248;-69
2022/07/19 04:09:11;;;;;;;;;6.00;6.00;;;;;26.95;29.44;101190.44;5080762;27;45396;-68
2022/07/19 04:11:37;;;;;;;;;7.00;7.00;;;;;26.93;30.49;101195.25;5080677;27;45376;-69
2022/07/19 04:14:02;;;;;;;;;7.00;5.67;;;;;26.90;29.72;101193.72;5080240;27;68253;-69
2022/07/19 04:16:27;;;;;;;;;7.67;6.67;;;;;26.85;30.26;101193.38;5081212;27;45366;-68
2022/07/19 04:18:53;;;;;;;;;6.67;6.00;;;;;26.84;30.24;101192.53;5079978;27;68330;-68
2022/07/19 04:21:18;;;;;;;;;5.00;5.00;;;;;26.84;30.36;101199.84;5079932;27;73322;-68
2022/07/19 04:23:43;;;;;;;;;7.00;6.00;;;;;26.83;29.85;101195.41;5079952;27;64574;-68
2022/07/19 04:26:09;;;;;;;;;8.33;7.33;;;;;26.82;30.68;101200.03;5080092;27;63653;-68
2022/07/19 04:28:34;;;;;;;;;5.00;5.00;;;;;26.81;29.95;101192.03;5079752;28;74341;-68
2022/07/19 04:30:59;;;;;;;;;5.00;5.00;;;;;26.79;30.78;101199.53;5080288;27;45354;-68
2022/07/19 04:33:25;;;;;;;;;6.33;6.33;;;;;26.76;30.73;101192.53;5080121;27;67207;-68
2022/07/19 04:35:51;;;;;;;;;6.00;5.33;;;;;26.76;30.10;101192.53;5080312;27;45726;-68
2022/07/19 04:38:17;;;;;;;;;9.00;7.33;;;;;26.76;30.19;101192.53;5080269;27;46390;-68
2022/07/19 04:40:42;;;;;;;;;4.33;4.00;;;;;26.76;30.24;101188.97;5080593;27;45376;-68
2022/07/19 04:43:07;;;;;;;;;10.33;7.00;;;;;26.71;30.91;101181.25;5078743;28;64666;-68
2022/07/19 04:45:33;;;;;;;;;7.00;6.33;;;;;26.68;31.22;101189.81;5079869;27;65941;-68
2022/07/19 04:47:58;;;;;;;;;8.00;7.00;;;;;26.66;30.22;101187.25;5079981;27;62198;-68
2022/07/19 04:50:23;;;;;;;;;7.67;7.67;;;;;26.68;30.28;101189.81;5079352;27;72841;-68
2022/07/19 04:52:48;;;;;;;;;8.00;8.00;;;;;26.68;30.88;101187.09;5079617;27;61022;-68
2022/07/19 04:55:14;;;;;;;;;8.00;6.67;;;;;26.68;30.42;101184.34;5079998;27;55816;-68
2022/07/19 04:57:40;;;;;;;;;8.33;8.33;;;;;26.70;30.93;101177.69;5080329;28;46139;-68
2022/07/19 05:00:08;;;;;;;;;10.00;10.00;;;;;26.72;30.19;101181.13;5079763;28;59157;-68
2022/07/19 05:02:34;;;;;;;;;6.00;4.00;;;;;26.74;30.59;101179.09;5080207;28;45401;-67
2022/07/19 05:04:59;;;;;;;;;6.00;6.00;;;;;26.73;31.01;101176.53;5080432;27;45595;-68
2022/07/19 05:07:24;;;;;;;;;8.67;7.00;;;;;26.77;30.99;101174.31;5079279;27;59878;-68
2022/07/19 05:09:50;;;;;;;;;9.67;7.67;;;;;26.79;30.37;101177.69;5079529;27;64255;-68
2022/07/19 05:12:15;;;;;;;;;6.33;6.33;;;;;26.80;30.65;101182.97;5077465;28;66505;-68
2022/07/19 05:14:40;;;;;;;;;10.00;6.00;;;;;26.83;30.57;101182.66;5079164;27;70489;-68
2022/07/19 05:17:06;;;;;;;;;8.33;7.00;;;;;26.87;30.72;101178.53;5079228;27;67567;-67
2022/07/19 05:19:31;;;;;;;;;9.00;8.00;;;;;26.90;30.48;101177.34;5079537;27;46931;-67
2022/07/19 05:21:56;;;;;;;;;9.00;8.67;;;;;26.93;30.97;101176.13;5078402;27;68622;-67
2022/07/19 05:24:22;;;;;;;;;10.33;9.00;;;;;26.94;30.39;101180.56;5079588;27;46483;-67
2022/07/19 05:26:47;;;;;;;;;7.00;7.00;;;;;26.97;30.81;101172.88;5078989;27;71609;-68
2022/07/19 05:29:13;;;;;;;;;9.00;9.00;;;;;26.98;31.28;101173.72;5079997;28;45416;-68
2022/07/19 05:31:38;;;;;;;;;10.33;8.00;;;;;26.99;31.16;101170.81;5078879;27;58154;-68
2022/07/19 05:34:03;;;;;;;;;8.67;8.33;;;;;27.03;30.52;101169.44;5079137;27;69223;-67
2022/07/19 05:36:29;;;;;;;;;11.00;10.00;;;;;27.06;30.89;101176.41;5078869;27;66310;-67
2022/07/19 05:38:55;;;;;;;;;8.00;7.00;;;;;27.14;31.03;101172.81;5078276;28;45416;-68
2022/07/19 05:41:21;;;;;;;;;7.00;6.33;;;;;27.17;30.57;101164.25;5078940;27;45489;-68
2022/07/19 05:43:48;;;;;;;;;9.67;8.00;;;;;27.19;30.66;101164.94;5079287;27;45572;-68
2022/07/19 05:46:14;;;;;;;;;9.67;9.67;;;;;27.21;30.62;101158.28;5083466;27;48296;-68
2022/07/19 05:48:40;;;;;;;;;8.00;7.00;;;;;27.24;30.32;101160.63;5063209;28;45466;-68
2022/07/19 05:51:06;;;;;;;;;10.00;10.00;;;;;27.27;30.27;101162.16;5079856;28;45410;-69
2022/07/19 05:53:31;;;;;;;;;12.33;11.00;;;;;27.34;30.62;101148.66;5081538;27;45703;-69
2022/07/19 05:55:56;;;;;;;;;12.00;9.33;;;;;27.40;30.53;101150.69;5082196;28;66743;-69
2022/07/19 05:58:23;;;;;;;;;9.33;8.00;;;;;27.46;30.65;101150.00;5082760;27;45331;-69
2022/07/19 06:03:33;;;;;;;;;9.67;8.67;;;;;27.58;30.61;101153.16;5079962;27;45386;-68
2022/07/19 06:05:58;;;;;;;;;10.67;10.67;;;;;27.64;30.32;101155.16;5081549;27;74068;-69
2022/07/19 06:08:23;;;;;;;;;6.67;6.67;;;;;27.71;30.82;101153.41;5081629;27;65882;-69
2022/07/19 06:10:49;;;;;;;;;9.00;8.33;;;;;27.78;30.65;101150.78;5082555;27;48213;-68
2022/07/19 06:13:15;;;;;;;;;9.33;9.33;;;;;27.82;30.19;101146.69;5082984;27;45452;-69
2022/07/19 06:15:40;;;;;;;;;8.67;8.00;;;;;27.88;30.08;101145.94;5082716;27;45504;-69
2022/07/19 06:18:05;;;;;;;;;9.67;8.00;;;;;27.96;30.09;101144.19;5083061;27;45247;-69
2022/07/19 06:20:31;;;;;;;;;9.67;9.00;;;;;28.03;30.18;101143.28;5082091;27;63483;-69
2022/07/19 06:22:56;;;;;;;;;10.67;10.67;;;;;28.10;29.99;101137.94;5081956;27;62472;-69
2022/07/19 06:25:21;;;;;;;;;9.00;9.00;;;;;28.19;30.17;101130.53;5081764;27;69998;-69
2022/07/19 06:27:47;;;;;;;;;12.67;8.33;;;;;28.29;29.97;101138.44;5082546;27;45346;-69
2022/07/19 06:30:12;;;;;;;;;10.33;10.33;;;;;28.35;29.64;101130.34;5081704;28;64436;-69
2022/07/19 06:32:37;;;;;;;;;8.33;8.33;;;;;28.44;29.62;101130.28;5083063;27;45296;-69
2022/07/19 06:35:03;;;;;;;;;10.67;10.33;;;;;28.53;29.38;101123.69;5081444;27;70261;-69
2022/07/19 06:37:28;;;;;;;;;11.00;11.00;;;;;28.61;29.37;101130.94;5082136;27;45323;-69
2022/07/19 06:39:53;;;;;;;;;14.00;12.67;;;;;28.69;29.30;101125.41;5081543;27;64126;-69
2022/07/19 06:42:19;;;;;;;;;9.00;9.00;;;;;28.77;29.11;101125.31;5082582;27;45401;-69
2022/07/19 06:44:44;;;;;;;;;12.00;10.33;;;;;28.87;28.95;101123.13;5082574;27;45238;-70
2022/07/19 06:47:09;;;;;;;;;8.67;8.67;;;;;29.00;28.96;101113.41;5081369;27;72041;-70
2022/07/19 06:49:35;;;;;;;;;8.33;8.33;;;;;29.13;28.67;101112.72;5081792;27;65634;-70
2022/07/19 06:52:01;;;;;;;;;10.67;9.67;;;;;29.30;28.61;101113.38;5081355;27;68790;-70
2022/07/19 06:54:26;;;;;;;;;12.33;10.67;;;;;29.43;28.36;101119.00;5081804;27;46029;-70
2022/07/19 06:56:53;;;;;;;;;11.00;8.00;;;;;29.60;28.07;101107.78;5082111;27;45507;-69
2022/07/19 06:59:19;;;;;;;;;11.67;11.67;;;;;29.76;27.97;101120.38;5081637;27;45448;-70
2022/07/19 07:01:44;;;;;;;;;12.33;10.67;;;;;29.94;28.26;101129.00;5082112;28;45473;-70
2022/07/19 07:04:09;;;;;;;;;8.67;8.00;;;;;30.11;27.60;101120.50;5081011;27;73953;-70
2022/07/19 07:06:35;;;;;;;;;12.00;10.33;;;;;30.30;27.38;101124.47;5081201;27;62747;-71
2022/07/19 07:09:01;;;;;;;;;11.00;10.00;;;;;30.50;27.07;101119.13;5081341;27;53758;-72
2022/07/19 07:11:26;;;;;;;;;7.33;6.00;;;;;30.71;26.56;101115.47;5082059;27;46349;-72
2022/07/19 07:13:51;;;;;;;;;9.67;9.00;;;;;30.98;26.83;101116.44;5081513;27;53528;-72
2022/07/19 07:16:17;;;;;;;;;11.67;10.33;;;;;31.25;26.89;101108.34;5080982;27;66817;-72
2022/07/19 07:18:42;;;;;;;;;12.33;9.33;;;;;31.50;25.64;101105.84;5081046;27;63309;-71
2022/07/19 07:21:07;;;;;;;;;15.33;11.67;;;;;31.79;25.99;101100.22;5081075;27;64847;-72
2022/07/19 07:23:33;;;;;;;;;9.67;9.67;;;;;32.11;25.57;101104.03;5080501;27;74986;-73
2022/07/19 07:25:58;;;;;;;;;11.00;9.00;;;;;32.42;25.12;101099.75;5081709;27;45355;-72
2022/07/19 07:28:23;;;;;;;;;10.33;10.33;;;;;32.74;24.53;101094.44;5080919;27;62865;-74
2022/07/19 07:30:49;;;;;;;;;8.00;8.00;;;;;33.04;23.85;101091.13;5080818;27;64311;-74
2022/07/19 07:33:14;;;;;;;;;9.00;9.00;;;;;33.37;23.54;101090.13;5081230;27;54544;-73
2022/07/19 07:35:39;;;;;;;;;11.00;10.00;;;;;33.71;23.09;101093.47;5081067;28;57120;-74
2022/07/19 07:38:05;;;;;;;;;10.00;10.00;;;;;33.99;23.06;101089.50;5080397;27;67722;-73
2022/07/19 07:40:30;;;;;;;;;11.33;9.00;;;;;34.37;21.90;101085.75;5081782;27;45392;-74
2022/07/19 07:42:55;;;;;;;;;10.33;9.00;;;;;34.77;21.56;101085.28;5080313;27;74175;-73
2022/07/19 07:45:21;;;;;;;;;9.00;7.67;;;;;35.16;21.25;101078.66;5080564;27;71114;-74
2022/07/19 07:47:46;;;;;;;;;13.33;10.33;;;;;35.58;21.77;101068.47;5080560;27;67620;-74
2022/07/19 07:50:11;;;;;;;;;12.00;11.67;;;;;36.11;20.70;101068.66;5080962;27;45396;-74
2022/07/19 07:52:37;;;;;;;;;9.67;8.00;;;;;36.50;20.01;101068.19;5080941;27;46114;-73
2022/07/19 07:55:03;;;;;;;;;10.67;10.67;;;;;36.95;19.65;101073.03;5081349;27;45476;-73
2022/07/19 07:57:29;;;;;;;;;9.00;9.00;;;;;37.46;18.39;101069.53;5081466;27;45365;-74
2022/07/19 07:59:54;;;;;;;;;10.33;10.33;;;;;37.96;19.00;101059.56;5081287;28;45393;-74
2022/07/19 08:02:20;;;;;;;;;12.33;11.00;;;;;38.55;18.19;101062.66;5080756;28;46095;-74
2022/07/19 08:04:45;;;;;;;;;9.00;9.00;;;;;39.19;17.22;101061.22;5080114;27;72060;-74
2022/07/19 08:07:10;;;;;;;;;12.00;10.00;;;;;39.88;17.19;101061.53;5080047;27;63178;-74
2022/07/19 08:09:36;;;;;;;;;12.00;10.00;;;;;40.56;16.90;101065.56;5080900;27;45338;-75
2022/07/19 08:12:01;;;;;;;;;7.33;6.00;;;;;41.20;16.28;101047.69;5079325;27;72937;-75
2022/07/19 08:14:27;;;;;;;;;8.67;8.67;;;;;41.64;15.22;101052.72;5080951;27;45412;-75
2022/07/19 08:16:53;;;;;;;;;7.00;6.00;;;;;41.97;15.27;101053.25;5080800;27;45416;-74
2022/07/19 08:19:18;;;;;;;;;9.33;8.00;;;;;42.36;15.05;101045.34;5078971;28;58533;-73
2022/07/19 08:21:43;;;;;;;;;7.67;6.33;;;;;42.76;14.41;101043.53;5079818;27;72221;-74
2022/07/19 08:24:08;;;;;;;;;10.00;8.33;;;;;42.98;14.60;101045.91;5079621;27;68055;-75
2022/07/19 08:26:34;;;;;;;;;10.67;9.00;;;;;43.23;14.17;101044.06;5080031;27;63324;-75
2022/07/19 08:28:59;;;;;;;;;8.33;7.00;;;;;43.60;13.21;101046.31;5080865;27;45469;-74
2022/07/19 08:31:24;;;;;;;;;10.33;9.67;;;;;43.95;13.26;101038.72;5080482;27;46112;-74
2022/07/19 08:33:50;;;;;;;;;10.33;10.33;;;;;44.15;12.94;101036.81;5079632;27;67575;-74
2022/07/19 08:36:15;;;;;;;;;10.00;10.00;;;;;44.58;12.18;101036.84;5079757;27;64533;-74
2022/07/19 08:38:42;;;;;;;;;10.67;8.67;;;;;44.73;12.52;101034.97;5080354;27;45538;-76
2022/07/19 08:41:07;;;;;;;;;7.67;7.67;;;;;44.87;11.58;101033.09;5080361;27;46052;-75
2022/07/19 08:43:33;;;;;;;;;10.00;10.00;;;;;45.04;11.97;101032.53;5079714;28;67641;-74
2022/07/19 08:46:02;;;;;;;;;10.67;10.67;;;;;45.26;11.83;101031.94;5079384;28;45457;-75
2022/07/19 08:48:34;;;;;;;;;6.00;6.00;;;;;45.43;11.29;101022.94;5080678;27;45473;-74
2022/07/19 08:51:00;;;;;;;;;12.67;10.00;;;;;45.75;11.46;101032.50;5080286;27;47051;-75
2022/07/19 08:53:29;;;;;;;;;7.67;7.67;;;;;46.04;11.00;101022.16;5079896;28;45421;-75
2022/07/19 08:55:55;;;;;;;;;10.67;9.33;;;;;46.03;10.91;101026.09;5080248;27;45291;-75
2022/07/19 08:58:20;;;;;;;;;9.00;9.00;;;;;46.13;11.03;101020.28;5079676;27;55062;-76
2022/07/19 09:00:45;;;;;;;;;9.67;6.33;;;;;46.48;10.79;101025.47;5079525;27;71110;-75
2022/07/19 09:03:11;;;;;;;;;8.67;8.67;;;;;46.73;10.58;101015.66;5079370;27;69058;-76
2022/07/19 09:05:37;;;;;;;;;16.00;12.00;;;;;46.94;10.50;101013.19;5080346;27;45553;-76
2022/07/19 09:08:04;;;;;;;;;12.67;12.00;;;;;47.16;10.53;101020.81;5079946;27;45608;-76
2022/07/19 09:10:30;;;;;;;;;10.00;10.00;;;;;47.59;10.02;101021.44;5080146;27;46146;-77
2022/07/19 09:13:05;;;;;;;;;1.33;0.67;;;;;48.18;9.87;101007.16;5080135;27;45404;-76
2022/07/19 09:15:47;;;;;;;;;12.33;9.33;;;;;48.81;9.66;101004.09;5079990;27;45240;-76
2022/07/19 09:18:24;;;;;;;;;10.00;9.33;;;;;49.23;9.55;101009.22;5079974;27;45486;-74
2022/07/19 09:20:52;;;;;;;;;8.00;7.00;;;;;49.20;9.55;100992.94;5079835;27;46241;-75
2022/07/19 09:23:18;;;;;;;;;12.00;11.00;;;;;49.53;9.16;100989.56;5083103;27;45410;-74
2022/07/19 09:25:46;;;;;;;;;8.00;7.00;;;;;49.85;8.46;100995.75;5083684;27;45503;-74
2022/07/19 09:28:11;;;;;;;;;8.00;8.00;;;;;49.90;8.43;100992.72;5083550;27;45536;-75
2022/07/19 09:30:42;;;;;;;;;6.33;6.33;;;;;49.93;8.11;100987.22;5082997;27;47018;-74
2022/07/19 09:33:12;;;;;;;;;7.33;5.33;;;;;49.80;7.77;100991.94;5083474;27;45353;-74
2022/07/19 09:35:41;;;;;;;;;11.33;9.67;;;;;49.62;7.87;100979.03;5083485;27;45547;-74
2022/07/19 09:38:32;;;;;;;;;8.00;8.00;;;;;49.89;7.86;100985.44;5083278;27;45279;-74
2022/07/19 09:41:08;;;;;;;;;6.67;6.67;;;;;50.37;7.68;100974.84;5083270;27;46205;-75
2022/07/19 09:43:49;;;;;;;;;9.33;8.67;;;;;50.65;7.37;100972.31;5083289;27;45796;-74
2022/07/19 09:46:34;;;;;;;;;7.67;6.67;;;;;50.64;7.02;100965.84;5083510;27;45296;-75
2022/07/19 09:49:05;;;;;;;;;9.67;7.33;;;;;50.77;6.99;100963.91;5083498;27;45635;-74
2022/07/19 09:51:33;;;;;;;;;5.33;5.33;;;;;50.71;6.61;100956.81;5083100;28;45406;-74
2022/07/19 09:53:58;;;;;;;;;6.67;6.67;;;;;50.12;6.89;100961.38;5082758;27;45324;-74
2022/07/19 09:56:24;;;;;;;;;8.00;7.33;;;;;50.08;7.44;100960.41;5082165;28;55859;-74
2022/07/19 09:58:51;;;;;;;;;8.33;8.33;;;;;50.45;7.98;100957.84;5081629;28;45556;-74
2022/07/19 10:01:16;;;;;;;;;7.00;7.00;;;;;51.01;7.48;100964.31;5097700;27;75456;-75
2022/07/19 10:03:43;;;;;;;;;11.00;8.67;;;;;51.02;6.22;100951.84;5080781;28;67191;-75
2022/07/19 10:06:09;;;;;;;;;9.33;7.67;;;;;51.08;6.64;100956.94;5082000;28;45426;-74
2022/07/19 10:08:35;;;;;;;;;12.00;10.00;;;;;51.40;7.12;100950.81;5081634;27;67231;-74
2022/07/19 10:11:01;;;;;;;;;7.00;7.00;;;;;51.55;6.32;100952.91;5081627;28;46232;-74
2022/07/19 10:13:27;;;;;;;;;5.67;5.67;;;;;51.04;6.84;100946.66;5080761;28;65113;-75
2022/07/19 10:15:54;;;;;;;;;8.67;6.00;;;;;51.00;6.54;100937.22;5082062;27;64934;-74
2022/07/19 10:18:24;;;;;;;;;2.33;2.33;;;;;50.99;6.18;100927.88;5081668;28;45256;-73
2022/07/19 10:20:50;;;;;;;;;5.00;5.00;;;;;50.88;6.51;100924.69;5081563;28;45442;-77
2022/07/19 10:23:15;;;;;;;;;7.00;7.00;;;;;51.17;7.32;100927.72;5081108;28;45393;-75
2022/07/19 10:25:46;;;;;;;;;9.67;7.67;;;;;51.77;6.29;100919.66;5083049;27;45431;-76
2022/07/19 10:28:29;;;;;;;;;5.67;5.33;;;;;52.42;5.66;100911.13;5082701;27;45353;-74
2022/07/19 10:30:55;;;;;;;;;7.00;6.00;;;;;52.33;6.02;100907.63;5082137;27;45352;-75
2022/07/19 10:33:38;;;;;;;;;8.33;8.33;;;;;52.51;6.12;100899.66;5080456;28;45437;-75
2022/07/19 10:36:46;;;;;;;;;7.00;6.67;;;;;52.92;6.13;100894.75;5082413;27;45472;-75
2022/07/19 10:39:18;;;;;;;;;7.00;7.00;;;;;52.94;5.88;100891.53;5059883;28;45528;-74
2022/07/19 10:42:09;;;;;;;;;5.33;3.00;;;;;52.80;6.08;100888.31;5059899;28;46268;-75
2022/07/19 10:44:36;;;;;;;;;9.00;8.33;;;;;52.67;5.22;100882.66;5068812;28;45932;-75
2022/07/19 10:47:01;;;;;;;;;6.00;4.67;;;;;52.86;5.32;100884.00;5081098;28;45363;-75
2022/07/19 10:49:47;;;;;;;;;6.67;6.67;;;;;53.23;5.69;100878.09;5081039;28;45426;-75
2022/07/19 10:52:27;;;;;;;;;5.33;5.33;;;;;53.40;4.83;100877.72;5081850;27;46195;-75
2022/07/19 10:57:45;;;;;;;;;7.00;7.00;;;;;52.80;5.42;100872.09;5082417;27;45317;-75
2022/07/19 11:00:26;;;;;;;;;7.00;6.33;;;;;52.27;5.49;100872.19;5082245;28;45226;-76
2022/07/19 11:03:21;;;;;;;;;5.00;5.00;;;;;52.48;5.81;100865.53;5082103;27;46522;-76
2022/07/19 11:05:49;;;;;;;;;8.67;8.67;;;;;52.89;5.10;100858.56;5081960;27;45364;-75
2022/07/19 11:08:15;;;;;;;;;9.00;6.67;;;;;53.29;5.58;100856.75;5081984;27;45508;-75
2022/07/19 11:10:40;;;;;;;;;7.00;6.33;;;;;53.55;5.42;100853.34;5081069;27;68466;-76
2022/07/19 11:13:06;;;;;;;;;8.33;7.00;;;;;53.81;4.57;100853.94;5081822;28;45508;-76
2022/07/19 11:15:31;;;;;;;;;4.67;4.67;;;;;53.99;5.27;100851.47;5081173;27;58625;-76
2022/07/19 11:17:59;;;;;;;;;8.67;7.00;;;;;54.17;4.26;100855.53;5082148;27;45484;-76
2022/07/19 11:20:32;;;;;;;;;11.00;9.00;;;;;54.34;4.74;100848.56;5082060;27;45411;-76
2022/07/19 11:22:59;;;;;;;;;6.00;6.00;;;;;54.66;4.15;100847.56;5081477;27;46333;-76
2022/07/19 11:25:31;;;;;;;;;6.33;6.00;;;;;54.84;3.53;100840.22;5081802;27;45358;-76
2022/07/19 11:27:58;;;;;;;;;8.00;7.67;;;;;54.79;3.82;100842.53;5081857;27;45272;-76